createdAt,value
2023-02-28T00:02:00.232Z,0.40
2023-02-28T00:04:28.415Z,0.50
2023-02-28T00:06:56.850Z,0.40
2023-02-28T00:09:31.664Z,0.40
2023-02-28T00:12:04.592Z,0.40
2023-02-28T00:14:35.000Z,0.43
2023-02-28T00:17:02.834Z,0.40
2023-02-28T00:19:33.434Z,0.40
2023-02-28T00:22:01.485Z,0.40
2023-02-28T00:24:29.856Z,0.40
2023-02-28T00:26:57.831Z,0.30
2023-02-28T00:29:28.763Z,0.50
2023-02-28T00:31:59.646Z,0.50
2023-02-28T00:34:27.626Z,0.40
2023-02-28T00:36:55.668Z,0.40
2023-02-28T00:39:24.488Z,0.40
2023-02-28T00:41:52.429Z,0.40
2023-02-28T00:44:22.618Z,0.40
2023-02-28T00:46:58.570Z,0.30
2023-02-28T00:49:27.155Z,0.40
2023-02-28T00:51:55.780Z,0.40
2023-02-28T00:54:24.881Z,0.30
2023-02-28T00:56:52.836Z,0.47
2023-02-28T00:59:21.335Z,0.50
2023-02-28T01:01:52.170Z,0.40
2023-02-28T01:04:21.885Z,0.40
2023-02-28T01:06:50.042Z,0.40
2023-02-28T01:09:17.999Z,0.40
2023-02-28T01:11:46.729Z,0.40
2023-02-28T01:14:17.341Z,0.40
2023-02-28T01:16:45.370Z,0.50
2023-02-28T01:19:14.414Z,0.47
2023-02-28T01:21:43.780Z,0.50
2023-02-28T01:24:12.781Z,0.40
2023-02-28T01:26:41.475Z,0.50
2023-02-28T01:29:09.690Z,0.40
2023-02-28T01:31:37.685Z,0.40
2023-02-28T01:34:05.741Z,0.40
2023-02-28T01:36:33.770Z,0.47
2023-02-28T01:39:04.215Z,0.47
2023-02-28T01:41:34.814Z,0.30
2023-02-28T01:44:06.279Z,0.40
2023-02-28T01:46:35.665Z,0.40
2023-02-28T01:49:11.085Z,0.30
2023-02-28T01:51:46.697Z,0.40
2023-02-28T01:54:20.754Z,0.40
2023-02-28T01:56:54.242Z,0.40
2023-02-28T01:59:29.564Z,0.40
2023-02-28T02:01:57.736Z,0.40
2023-02-28T02:04:33.739Z,0.50
2023-02-28T02:07:02.136Z,0.40
2023-02-28T02:09:31.664Z,0.40
2023-02-28T02:12:01.582Z,0.40
2023-02-28T02:14:46.985Z,0.47
2023-02-28T02:17:25.713Z,0.30
2023-02-28T02:20:31.742Z,0.50
2023-02-28T02:23:24.458Z,0.30
2023-02-28T02:25:57.176Z,0.30
2023-02-28T02:28:46.636Z,0.33
2023-02-28T02:31:35.583Z,0.40
2023-02-28T02:34:42.964Z,0.30
2023-02-28T02:37:18.363Z,0.40
2023-02-28T02:39:53.512Z,0.40
2023-02-28T02:42:34.666Z,0.40
2023-02-28T02:45:08.804Z,0.40
2023-02-28T02:47:39.270Z,0.30
2023-02-28T02:50:14.510Z,0.40
2023-02-28T02:52:47.278Z,0.40
2023-02-28T02:55:17.025Z,0.40
2023-02-28T02:57:49.550Z,0.33
2023-02-28T03:00:21.835Z,0.40
2023-02-28T03:02:52.269Z,0.40
2023-02-28T03:05:28.820Z,0.37
2023-02-28T03:07:56.783Z,0.40
2023-02-28T03:10:33.477Z,0.40
2023-02-28T03:13:28.353Z,0.40
2023-02-28T03:16:09.284Z,0.40
2023-02-28T03:18:49.950Z,0.40
2023-02-28T03:21:31.692Z,0.40
2023-02-28T03:24:08.013Z,0.40
2023-02-28T03:26:41.695Z,0.50
2023-02-28T03:29:18.399Z,0.40
2023-02-28T03:31:53.034Z,0.50
2023-02-28T03:34:26.238Z,0.50
2023-02-28T03:37:02.614Z,0.30
2023-02-28T03:39:39.010Z,0.40
2023-02-28T03:42:11.857Z,0.37
2023-02-28T03:44:45.410Z,0.40
2023-02-28T03:47:19.329Z,0.40
2023-02-28T03:49:51.689Z,0.40
2023-02-28T03:52:27.708Z,0.40
2023-02-28T03:55:01.828Z,0.30
2023-02-28T03:57:37.036Z,0.40
2023-02-28T04:00:12.142Z,0.40
2023-02-28T04:02:40.542Z,0.40
2023-02-28T04:05:12.299Z,0.30
2023-02-28T04:07:41.953Z,0.40
2023-02-28T04:10:12.188Z,0.40
2023-02-28T04:12:41.231Z,0.50
2023-02-28T04:15:11.589Z,0.30
2023-02-28T04:17:39.654Z,0.40
2023-02-28T04:20:10.698Z,0.40
2023-02-28T04:22:39.220Z,0.30
2023-02-28T04:25:11.918Z,0.30
2023-02-28T04:27:39.957Z,0.40
2023-02-28T04:30:09.310Z,0.30
2023-02-28T04:32:37.274Z,0.50
2023-02-28T04:35:06.155Z,0.30
2023-02-28T04:37:35.866Z,0.50
2023-02-28T04:40:04.876Z,0.40
2023-02-28T04:42:36.663Z,0.40
2023-02-28T04:45:05.217Z,0.30
2023-02-28T04:47:33.259Z,0.37
2023-02-28T04:50:01.230Z,0.40
2023-02-28T04:52:29.992Z,0.33
2023-02-28T04:54:57.843Z,0.40
2023-02-28T04:57:25.690Z,0.50
2023-02-28T04:59:55.440Z,0.30
2023-02-28T05:02:25.863Z,0.37
2023-02-28T05:04:53.976Z,0.30
2023-02-28T05:07:23.194Z,0.47
2023-02-28T05:09:51.119Z,0.40
2023-02-28T05:12:19.099Z,0.40
2023-02-28T05:14:46.986Z,0.40
2023-02-28T05:17:16.250Z,0.40
2023-02-28T05:19:44.240Z,0.40
2023-02-28T05:22:23.455Z,0.40
2023-02-28T05:25:00.205Z,0.40
2023-02-28T05:27:29.799Z,0.40
2023-02-28T05:29:58.331Z,0.40
2023-02-28T05:32:27.655Z,0.37
2023-02-28T05:35:01.024Z,0.40
2023-02-28T05:37:41.416Z,0.40
2023-02-28T05:40:12.864Z,0.47
2023-02-28T05:42:41.960Z,0.40
2023-02-28T05:45:11.543Z,0.40
2023-02-28T05:47:42.859Z,0.43
2023-02-28T05:50:22.370Z,0.43
2023-02-28T05:52:51.945Z,0.30
2023-02-28T05:55:19.763Z,0.40
2023-02-28T05:57:47.729Z,0.50
2023-02-28T06:00:18.775Z,0.50
2023-02-28T06:02:48.595Z,0.40
2023-02-28T06:05:19.260Z,0.40
2023-02-28T06:07:47.147Z,0.40
2023-02-28T06:10:15.824Z,0.40
2023-02-28T06:12:43.868Z,0.40
2023-02-28T06:15:14.528Z,0.40
2023-02-28T06:17:42.518Z,0.40
2023-02-28T06:20:14.964Z,0.40
2023-02-28T06:22:43.856Z,0.40
2023-02-28T06:25:14.617Z,0.40
2023-02-28T06:27:42.964Z,0.40
2023-02-28T06:30:14.047Z,0.40
2023-02-28T06:32:42.163Z,0.47
2023-02-28T06:35:10.985Z,0.40
2023-02-28T06:37:41.867Z,0.50
2023-02-28T06:40:14.998Z,0.40
2023-02-28T06:42:44.570Z,0.40
2023-02-28T06:45:14.101Z,0.40
2023-02-28T06:47:43.542Z,0.40
2023-02-28T06:50:13.670Z,0.40
2023-02-28T06:52:43.057Z,0.50
2023-02-28T06:55:11.848Z,0.30
2023-02-28T06:57:40.325Z,0.30
2023-02-28T07:00:10.488Z,0.40
2023-02-28T07:02:39.127Z,0.30
2023-02-28T07:05:07.823Z,0.33
2023-02-28T07:07:37.425Z,0.40
2023-02-28T07:10:07.430Z,0.40
2023-02-28T07:12:35.217Z,0.30
2023-02-28T07:15:03.420Z,0.30
2023-02-28T07:17:31.420Z,0.30
2023-02-28T07:19:59.303Z,0.30
2023-02-28T07:22:29.633Z,0.30
2023-02-28T07:24:57.688Z,0.40
2023-02-28T07:27:27.696Z,0.40
2023-02-28T07:29:56.874Z,0.40
2023-02-28T07:32:25.087Z,0.30
2023-02-28T07:34:54.867Z,0.30
2023-02-28T07:37:22.849Z,0.40
2023-02-28T07:39:52.348Z,0.40
2023-02-28T07:42:20.532Z,0.40
2023-02-28T07:44:49.782Z,0.33
2023-02-28T07:47:18.974Z,0.30
2023-02-28T07:49:47.723Z,0.33
2023-02-28T07:52:15.742Z,0.40
2023-02-28T07:54:43.778Z,0.40
2023-02-28T07:57:11.644Z,0.43
2023-02-28T07:59:40.650Z,0.30
2023-02-28T08:02:14.432Z,0.40
2023-02-28T08:05:00.286Z,0.40
2023-02-28T08:07:28.548Z,0.40
2023-02-28T08:09:56.560Z,0.40
2023-02-28T08:12:24.387Z,0.40
2023-02-28T08:14:53.347Z,0.40
2023-02-28T08:17:25.548Z,0.40
2023-02-28T08:19:53.613Z,0.30
2023-02-28T08:22:24.973Z,0.40
2023-02-28T08:24:54.223Z,0.33
2023-02-28T08:27:31.618Z,0.33
2023-02-28T08:30:01.628Z,0.40
2023-02-28T08:32:31.242Z,0.40
2023-02-28T08:34:59.686Z,0.30
2023-02-28T08:37:30.771Z,0.40
2023-02-28T08:39:58.760Z,0.33
2023-02-28T08:42:26.816Z,0.40
2023-02-28T08:44:55.059Z,0.50
2023-02-28T08:47:23.000Z,0.40
2023-02-28T08:49:55.369Z,0.30
2023-02-28T08:52:23.329Z,0.40
2023-02-28T08:54:51.685Z,0.43
2023-02-28T08:57:22.471Z,0.50
2023-02-28T08:59:50.597Z,0.40
2023-02-28T09:02:18.910Z,0.40
2023-02-28T09:04:47.658Z,0.30
2023-02-28T09:07:17.595Z,0.37
2023-02-28T09:09:55.763Z,0.30
2023-02-28T09:12:24.851Z,0.40
2023-02-28T09:14:53.456Z,0.30
2023-02-28T09:17:22.450Z,0.30
2023-02-28T09:19:50.962Z,0.30
2023-02-28T09:22:25.484Z,0.30
2023-02-28T09:25:01.669Z,0.30
2023-02-28T09:27:30.857Z,0.30
2023-02-28T09:29:58.907Z,0.27
2023-02-28T09:32:31.669Z,0.27
2023-02-28T09:34:59.866Z,0.23
2023-02-28T09:37:32.121Z,0.30
2023-02-28T09:40:00.268Z,0.30
2023-02-28T09:42:34.573Z,0.30
2023-02-28T09:45:23.467Z,0.20
2023-02-28T09:47:56.861Z,0.30
2023-02-28T09:50:34.380Z,0.30
2023-02-28T09:53:20.954Z,0.20
2023-02-28T09:55:57.004Z,0.20
2023-02-28T09:58:35.843Z,0.30
2023-02-28T10:01:14.274Z,0.30
2023-02-28T10:03:45.118Z,0.30
2023-02-28T10:06:19.429Z,0.30
2023-02-28T10:08:58.729Z,0.20
2023-02-28T10:11:29.239Z,0.27
2023-02-28T10:14:03.379Z,0.30
2023-02-28T10:16:35.751Z,0.20
2023-02-28T10:19:10.723Z,0.30
2023-02-28T10:21:44.730Z,0.30
2023-02-28T10:24:22.563Z,0.30
2023-02-28T10:27:01.753Z,0.20
2023-02-28T10:29:33.722Z,0.20
2023-02-28T10:32:04.806Z,0.20
2023-02-28T10:34:32.688Z,0.20
2023-02-28T10:37:08.268Z,0.20
2023-02-28T10:39:40.316Z,0.30
2023-02-28T10:42:22.770Z,0.20
2023-02-28T10:44:51.015Z,0.20
2023-02-28T10:47:21.775Z,0.20
2023-02-28T10:49:55.776Z,0.20
2023-02-28T10:52:41.788Z,0.20
2023-02-28T10:55:24.582Z,0.20
2023-02-28T10:57:52.584Z,0.20
2023-02-28T11:00:23.515Z,0.20
2023-02-28T11:02:53.128Z,0.20
2023-02-28T11:05:31.900Z,0.20
2023-02-28T11:08:08.343Z,0.20
2023-02-28T11:10:38.283Z,0.20
2023-02-28T11:13:07.857Z,0.20
2023-02-28T11:15:37.272Z,0.20
2023-02-28T11:18:21.760Z,0.30
2023-02-28T11:20:52.776Z,0.20
2023-02-28T11:23:24.749Z,0.20
2023-02-28T11:25:58.195Z,0.30
2023-02-28T11:28:29.300Z,0.30
2023-02-28T11:31:07.008Z,0.30
2023-02-28T11:33:46.238Z,0.30
2023-02-28T11:36:17.705Z,0.20
2023-02-28T11:38:47.177Z,0.23
2023-02-28T11:41:48.562Z,0.30
2023-02-28T11:44:40.582Z,0.30
2023-02-28T11:47:17.792Z,0.30
2023-02-28T11:50:07.477Z,0.30
2023-02-28T11:52:46.945Z,0.20
2023-02-28T11:55:20.595Z,0.27
2023-02-28T11:58:28.854Z,0.30
2023-02-28T12:01:11.737Z,0.23
2023-02-28T12:03:52.109Z,0.20
2023-02-28T12:06:27.137Z,0.20
2023-02-28T12:09:10.532Z,0.20
2023-02-28T12:11:50.400Z,0.20
2023-02-28T12:14:48.410Z,0.20
2023-02-28T12:17:27.227Z,0.20
2023-02-28T12:20:04.303Z,0.20
2023-02-28T12:22:34.279Z,0.20
2023-02-28T12:25:38.613Z,0.20
2023-02-28T12:28:09.259Z,0.30
2023-02-28T12:30:45.695Z,0.20
2023-02-28T12:33:18.943Z,0.20
2023-02-28T12:35:52.249Z,0.20
2023-02-28T12:38:24.763Z,0.20
2023-02-28T12:40:57.263Z,0.20
2023-02-28T12:43:33.095Z,0.30
2023-02-28T12:46:12.076Z,0.20
2023-02-28T12:48:45.204Z,0.20
2023-02-28T12:51:14.979Z,0.20
2023-02-28T12:53:56.387Z,0.20
2023-02-28T12:56:36.888Z,0.20
2023-02-28T12:59:13.368Z,0.20
2023-02-28T13:02:03.358Z,0.20
2023-02-28T13:05:06.918Z,0.20
2023-02-28T13:08:00.703Z,0.20
2023-02-28T13:10:41.451Z,0.20
2023-02-28T13:13:17.268Z,0.30
2023-02-28T13:16:05.467Z,0.20
2023-02-28T13:18:40.507Z,0.20
2023-02-28T13:21:10.000Z,0.20
2023-02-28T13:24:01.206Z,0.20
2023-02-28T13:27:12.181Z,0.30
2023-02-28T13:29:41.480Z,0.20
2023-02-28T13:32:31.166Z,0.23
2023-02-28T13:35:40.551Z,0.20
2023-02-28T13:38:42.577Z,0.20
2023-02-28T13:41:49.083Z,0.20
2023-02-28T13:44:20.340Z,0.20
2023-02-28T13:47:24.840Z,0.20
2023-02-28T13:49:54.518Z,0.20
2023-02-28T13:52:26.280Z,0.20
2023-02-28T13:55:27.184Z,0.20
2023-02-28T13:58:13.788Z,0.20
2023-02-28T14:01:15.425Z,0.20
2023-02-28T14:04:00.358Z,0.20
2023-02-28T14:06:54.382Z,0.20
2023-02-28T14:09:32.321Z,0.20
2023-02-28T14:12:40.550Z,0.20
2023-02-28T14:15:30.164Z,0.20
2023-02-28T14:18:01.502Z,0.20
2023-02-28T14:20:34.391Z,0.20
2023-02-28T14:23:12.742Z,0.20
2023-02-28T14:25:48.615Z,0.20
2023-02-28T14:28:33.270Z,0.20
2023-02-28T14:31:09.490Z,0.20
2023-02-28T14:34:02.679Z,0.20
2023-02-28T14:36:35.614Z,0.20
2023-02-28T14:39:08.173Z,0.20
2023-02-28T14:41:39.498Z,0.20
2023-02-28T14:44:19.002Z,0.20
2023-02-28T14:46:49.757Z,0.20
2023-02-28T14:49:22.893Z,0.20
2023-02-28T14:52:03.451Z,0.20
2023-02-28T14:54:31.747Z,0.20
2023-02-28T14:56:59.854Z,0.20
2023-02-28T14:59:31.807Z,0.20
2023-02-28T15:02:19.980Z,0.20
2023-02-28T15:04:55.549Z,0.20
2023-02-28T15:07:29.253Z,0.20
2023-02-28T15:10:14.376Z,0.20
2023-02-28T15:12:43.963Z,0.20
2023-02-28T15:15:18.903Z,0.20
2023-02-28T15:17:51.777Z,0.20
2023-02-28T15:20:21.857Z,0.20
2023-02-28T15:22:53.919Z,0.20
2023-02-28T15:25:24.560Z,0.20
2023-02-28T15:27:55.189Z,0.20
2023-02-28T15:30:30.623Z,0.20
2023-02-28T15:33:09.475Z,0.20
2023-02-28T15:35:37.636Z,0.20
2023-02-28T15:38:15.727Z,0.20
2023-02-28T15:40:46.715Z,0.20
2023-02-28T15:43:17.569Z,0.30
2023-02-28T15:45:50.875Z,0.20
2023-02-28T15:48:22.014Z,0.20
2023-02-28T15:50:52.415Z,0.30
2023-02-28T15:53:23.912Z,0.20
2023-02-28T15:56:02.324Z,0.20
2023-02-28T15:58:31.130Z,0.20
2023-02-28T16:01:18.752Z,0.30
2023-02-28T16:03:50.156Z,0.30
2023-02-28T16:06:33.176Z,0.20
2023-02-28T16:09:03.835Z,0.30
2023-02-28T16:11:42.007Z,0.23
2023-02-28T16:14:17.071Z,0.30
2023-02-28T16:16:50.405Z,0.40
2023-02-28T16:19:18.474Z,0.40
2023-02-28T16:21:47.794Z,0.37
2023-02-28T16:24:15.981Z,0.30
2023-02-28T16:27:03.185Z,0.40
2023-02-28T16:29:33.406Z,0.40
2023-02-28T16:32:06.562Z,0.30
2023-02-28T16:34:38.685Z,0.40
2023-02-28T16:37:12.012Z,0.30
2023-02-28T16:39:40.312Z,0.50
2023-02-28T16:42:09.356Z,0.40
2023-02-28T16:44:38.009Z,0.40
2023-02-28T16:47:07.337Z,0.40
2023-02-28T16:49:35.457Z,0.40
2023-02-28T16:52:03.414Z,0.40
2023-02-28T16:54:31.340Z,0.50
2023-02-28T16:56:59.547Z,0.50
2023-02-28T16:59:28.982Z,0.40
2023-02-28T17:01:58.891Z,0.40
2023-02-28T17:04:35.522Z,0.50
2023-02-28T17:07:03.582Z,0.50
2023-02-28T17:09:42.030Z,0.57
2023-02-28T17:12:12.098Z,0.47
2023-02-28T17:14:40.115Z,0.40
2023-02-28T17:17:08.729Z,0.40
2023-02-28T17:19:39.297Z,0.40
2023-02-28T17:22:07.359Z,0.50
2023-02-28T17:24:35.531Z,0.50
2023-02-28T17:27:03.578Z,0.40
2023-02-28T17:29:31.646Z,0.50
2023-02-28T17:32:03.142Z,0.40
2023-02-28T17:34:38.382Z,0.40
2023-02-28T17:37:09.105Z,0.50
2023-02-28T17:39:37.932Z,0.50
2023-02-28T17:42:11.880Z,0.40
2023-02-28T17:44:39.927Z,0.30
2023-02-28T17:47:16.997Z,0.40
2023-02-28T17:49:51.510Z,0.40
2023-02-28T17:52:19.372Z,0.40
2023-02-28T17:54:47.253Z,0.40
2023-02-28T17:57:17.164Z,0.50
2023-02-28T17:59:45.855Z,0.40
2023-02-28T18:02:18.012Z,0.40
2023-02-28T18:04:48.409Z,0.40
2023-02-28T18:07:17.514Z,0.40
2023-02-28T18:09:45.496Z,0.40
2023-02-28T18:12:13.582Z,0.50
2023-02-28T18:14:41.680Z,0.40
2023-02-28T18:17:19.402Z,0.40
2023-02-28T18:19:50.962Z,0.37
2023-02-28T18:22:18.961Z,0.40
2023-02-28T18:24:48.565Z,0.40
2023-02-28T18:27:16.479Z,0.40
2023-02-28T18:29:44.477Z,0.40
2023-02-28T18:32:12.559Z,0.40
2023-02-28T18:34:40.498Z,0.40
2023-02-28T18:37:11.605Z,0.40
2023-02-28T18:39:39.658Z,0.40
2023-02-28T18:42:07.623Z,0.40
2023-02-28T18:44:38.135Z,0.60
2023-02-28T18:47:08.261Z,0.40
2023-02-28T18:49:37.981Z,0.70
2023-02-28T18:52:06.149Z,0.50
2023-02-28T18:54:36.566Z,0.40
2023-02-28T18:57:04.536Z,0.40
2023-02-28T18:59:32.719Z,0.40
2023-02-28T19:02:01.829Z,0.40
2023-02-28T19:04:29.979Z,0.40
2023-02-28T19:07:00.536Z,0.40
2023-02-28T19:09:28.501Z,0.40
2023-02-28T19:11:58.320Z,0.40
2023-02-28T19:14:26.271Z,0.40
2023-02-28T19:16:54.500Z,0.40
2023-02-28T19:19:22.370Z,0.40
2023-02-28T19:21:50.476Z,0.40
2023-02-28T19:24:20.336Z,0.40
2023-02-28T19:26:48.513Z,0.40
2023-02-28T19:29:17.943Z,0.67
2023-02-28T19:31:46.028Z,0.40
2023-02-28T19:34:15.123Z,0.30
2023-02-28T19:36:43.114Z,0.40
2023-02-28T19:39:11.053Z,0.50
2023-02-28T19:41:38.994Z,0.40
2023-02-28T19:44:07.042Z,0.40
2023-02-28T19:46:37.381Z,0.40
2023-02-28T19:49:05.434Z,0.50
2023-02-28T19:51:34.280Z,0.50
2023-02-28T19:54:03.204Z,0.40
2023-02-28T19:56:31.300Z,0.40
2023-02-28T19:58:59.543Z,0.40
2023-02-28T20:01:27.528Z,0.50
2023-02-28T20:03:56.832Z,0.40
2023-02-28T20:06:25.801Z,0.40
2023-02-28T20:08:56.804Z,0.40
2023-02-28T20:11:25.837Z,0.50
2023-02-28T20:13:54.440Z,0.40
2023-02-28T20:16:23.109Z,0.40
2023-02-28T20:18:52.310Z,0.40
2023-02-28T20:21:22.996Z,0.50
2023-02-28T20:23:55.303Z,0.40
2023-02-28T20:26:23.518Z,0.50
2023-02-28T20:28:53.174Z,0.47
2023-02-28T20:31:22.583Z,0.40
2023-02-28T20:33:51.788Z,0.40
2023-02-28T20:36:21.571Z,0.50
2023-02-28T20:38:52.808Z,0.40
2023-02-28T20:41:24.055Z,0.40
2023-02-28T20:43:55.921Z,0.60
2023-02-28T20:46:23.845Z,0.40
2023-02-28T20:48:52.709Z,0.50
2023-02-28T20:51:22.261Z,0.40
2023-02-28T20:53:51.723Z,0.63
2023-02-28T20:56:23.749Z,0.40
2023-02-28T20:58:55.914Z,0.40
2023-02-28T21:01:26.907Z,0.40
2023-02-28T21:03:57.580Z,0.40
2023-02-28T21:06:29.166Z,0.50
2023-02-28T21:08:59.650Z,0.40
2023-02-28T21:11:29.854Z,0.40
2023-02-28T21:14:00.804Z,0.40
2023-02-28T21:16:31.304Z,0.40
2023-02-28T21:19:04.024Z,0.50
2023-02-28T21:21:33.634Z,0.40
2023-02-28T21:24:03.467Z,0.50
2023-02-28T21:26:34.050Z,0.50
2023-02-28T21:29:06.957Z,0.43
2023-02-28T21:31:36.484Z,0.40
2023-02-28T21:34:07.272Z,0.40
2023-02-28T21:36:39.660Z,0.50
2023-02-28T21:39:14.076Z,0.50
2023-02-28T21:41:43.217Z,0.47
2023-02-28T21:44:18.465Z,0.30
2023-02-28T21:46:47.623Z,0.50
2023-02-28T21:49:16.385Z,0.30
2023-02-28T21:51:44.774Z,0.40
2023-02-28T21:54:14.793Z,0.43
2023-02-28T21:56:43.546Z,0.40
2023-02-28T21:59:11.778Z,0.40
2023-02-28T22:01:44.514Z,0.50
2023-02-28T22:04:20.928Z,0.53
2023-02-28T22:06:54.847Z,0.50
2023-02-28T22:09:25.874Z,0.50
2023-02-28T22:11:58.927Z,0.40
2023-02-28T22:14:30.845Z,0.40
2023-02-28T22:17:00.626Z,0.47
2023-02-28T22:19:29.720Z,0.40
2023-02-28T22:22:00.124Z,0.50
2023-02-28T22:24:32.657Z,0.50
2023-02-28T22:27:02.602Z,0.40
2023-02-28T22:29:32.764Z,0.50
2023-02-28T22:32:03.542Z,0.40
2023-02-28T22:34:37.912Z,0.50
2023-02-28T22:37:06.133Z,0.40
2023-02-28T22:39:38.041Z,0.50
2023-02-28T22:42:07.735Z,0.40
2023-02-28T22:44:51.380Z,0.40
2023-02-28T22:47:32.794Z,0.40
2023-02-28T22:50:04.462Z,0.50
2023-02-28T22:52:32.536Z,0.40
2023-02-28T22:55:02.670Z,0.60
2023-02-28T22:57:37.348Z,0.63
2023-02-28T23:00:15.427Z,0.43
2023-02-28T23:02:45.247Z,0.40
2023-02-28T23:05:14.234Z,0.50
2023-02-28T23:07:46.674Z,0.40
2023-02-28T23:10:26.298Z,0.40
2023-02-28T23:12:55.886Z,0.47
2023-02-28T23:15:24.685Z,0.40
2023-02-28T23:17:52.665Z,0.40
2023-02-28T23:20:23.152Z,0.40
2023-02-28T23:22:51.750Z,0.40
2023-02-28T23:25:20.326Z,0.50
2023-02-28T23:27:50.106Z,0.47
2023-02-28T23:30:22.174Z,0.50
2023-02-28T23:32:50.795Z,0.40
2023-02-28T23:35:19.954Z,0.60
2023-02-28T23:37:47.954Z,0.40
2023-02-28T23:40:17.615Z,0.60
2023-02-28T23:42:45.932Z,0.50
2023-02-28T23:45:16.520Z,0.50
2023-02-28T23:47:44.468Z,0.40
2023-02-28T23:50:13.725Z,0.40
2023-02-28T23:52:41.919Z,0.37
2023-02-28T23:55:10.783Z,0.40
2023-02-28T23:57:38.769Z,0.40
